createdAt,value
2023-02-16T00:01:26.110Z,22.23
2023-02-16T00:03:55.170Z,22.30
2023-02-16T00:06:25.393Z,22.73
2023-02-16T00:08:55.055Z,22.60
2023-02-16T00:11:52.181Z,20.38
2023-02-16T00:14:22.687Z,23.58
2023-02-16T00:16:50.532Z,22.48
2023-02-16T00:19:20.974Z,19.85
2023-02-16T00:21:51.894Z,22.65
2023-02-16T00:24:19.639Z,22.35
2023-02-16T00:26:48.119Z,22.23
2023-02-16T00:29:21.351Z,22.70
2023-02-16T00:31:49.848Z,21.90
2023-02-16T00:34:31.939Z,20.38
2023-02-16T00:37:03.582Z,22.50
2023-02-16T00:39:31.540Z,21.13
2023-02-16T00:42:03.479Z,21.63
2023-02-16T00:44:34.641Z,23.52
2023-02-16T00:47:05.103Z,21.23
2023-02-16T00:49:32.883Z,20.92
2023-02-16T00:52:02.222Z,22.60
2023-02-16T00:54:31.682Z,22.20
2023-02-16T00:57:00.009Z,20.73
2023-02-16T00:59:28.177Z,23.20
2023-02-16T01:01:57.347Z,22.25
2023-02-16T01:04:25.155Z,18.83
2023-02-16T01:07:10.385Z,21.52
2023-02-16T01:09:56.776Z,22.42
2023-02-16T01:12:24.532Z,23.38
2023-02-16T01:14:54.271Z,22.40
2023-02-16T01:17:24.774Z,23.63
2023-02-16T01:19:54.704Z,21.15
2023-02-16T01:22:22.441Z,22.52
2023-02-16T01:24:51.474Z,21.33
2023-02-16T01:27:19.217Z,22.60
2023-02-16T01:29:46.884Z,22.83
2023-02-16T01:32:16.696Z,21.40
2023-02-16T01:34:44.494Z,24.85
2023-02-16T01:37:16.177Z,22.75
2023-02-16T01:39:44.846Z,22.00
2023-02-16T01:42:31.153Z,22.58
2023-02-16T01:45:05.136Z,21.48
2023-02-16T01:47:38.755Z,20.35
2023-02-16T01:50:17.975Z,21.58
2023-02-16T01:52:52.652Z,21.67
2023-02-16T01:55:25.404Z,23.38
2023-02-16T01:58:00.625Z,22.60
2023-02-16T02:00:32.959Z,23.02
2023-02-16T02:03:19.480Z,22.15
2023-02-16T02:05:47.783Z,22.38
2023-02-16T02:08:22.749Z,22.25
2023-02-16T02:11:04.244Z,23.17
2023-02-16T02:13:40.972Z,22.25
2023-02-16T02:16:11.273Z,21.95
2023-02-16T02:18:39.677Z,22.35
2023-02-16T02:21:43.723Z,22.73
2023-02-16T02:24:42.216Z,20.60
2023-02-16T02:27:21.863Z,22.23
2023-02-16T02:30:06.116Z,24.33
2023-02-16T02:32:50.632Z,20.85
2023-02-16T02:35:37.186Z,22.52
2023-02-16T02:38:13.303Z,22.38
2023-02-16T02:40:55.676Z,22.33
2023-02-16T02:43:32.962Z,21.45
2023-02-16T02:46:04.699Z,22.55
2023-02-16T02:48:32.714Z,21.33
2023-02-16T02:51:21.749Z,22.92
2023-02-16T02:54:15.716Z,21.20
2023-02-16T02:57:06.545Z,25.58
2023-02-16T02:59:56.526Z,21.88
2023-02-16T03:02:25.322Z,21.90
2023-02-16T03:04:56.084Z,21.95
2023-02-16T03:07:45.900Z,22.13
2023-02-16T03:10:32.009Z,22.05
2023-02-16T03:13:01.740Z,21.65
2023-02-16T03:15:32.322Z,21.27
2023-02-16T03:18:18.407Z,23.15
2023-02-16T03:21:05.133Z,22.65
2023-02-16T03:23:51.416Z,21.77
2023-02-16T03:26:38.414Z,23.25
2023-02-16T03:29:16.705Z,21.30
2023-02-16T03:31:47.339Z,21.67
2023-02-16T03:34:15.836Z,22.70
2023-02-16T03:36:46.969Z,21.75
2023-02-16T03:39:15.268Z,21.60
2023-02-16T03:41:47.355Z,21.40
2023-02-16T03:44:15.212Z,23.00
2023-02-16T03:46:43.352Z,20.50
2023-02-16T03:49:12.735Z,22.02
2023-02-16T03:51:40.458Z,22.30
2023-02-16T03:54:08.708Z,23.02
2023-02-16T03:56:36.393Z,21.20
2023-02-16T03:59:04.119Z,20.33
2023-02-16T04:01:31.797Z,20.85
2023-02-16T04:03:59.518Z,20.98
2023-02-16T04:06:28.716Z,21.60
2023-02-16T04:08:56.371Z,22.00
2023-02-16T04:11:41.412Z,19.40
2023-02-16T04:14:09.080Z,21.85
2023-02-16T04:16:36.790Z,21.25
2023-02-16T04:19:04.502Z,20.65
2023-02-16T04:21:33.513Z,19.85
2023-02-16T04:24:01.325Z,19.58
2023-02-16T04:26:29.072Z,23.10
2023-02-16T04:28:56.704Z,20.13
2023-02-16T04:31:24.539Z,20.83
2023-02-16T04:33:52.272Z,22.08
2023-02-16T04:36:19.960Z,22.52
2023-02-16T04:38:48.992Z,20.33
2023-02-16T04:41:16.766Z,20.83
2023-02-16T04:43:44.466Z,21.55
2023-02-16T04:46:12.223Z,22.92
2023-02-16T04:48:40.743Z,22.77
2023-02-16T04:51:08.414Z,22.67
2023-02-16T04:53:36.077Z,22.20
2023-02-16T04:56:05.690Z,21.63
2023-02-16T04:58:33.395Z,22.60
2023-02-16T05:01:01.048Z,22.13
2023-02-16T05:03:28.789Z,21.95
2023-02-16T05:05:56.530Z,22.73
2023-02-16T05:08:24.215Z,22.33
2023-02-16T05:11:11.906Z,23.77
2023-02-16T05:13:58.584Z,22.92
2023-02-16T05:16:26.538Z,23.90
2023-02-16T05:18:55.534Z,20.52
2023-02-16T05:21:32.973Z,22.63
2023-02-16T05:24:02.647Z,22.70
2023-02-16T05:26:30.707Z,25.00
2023-02-16T05:28:59.867Z,23.30
2023-02-16T05:31:28.730Z,23.05
2023-02-16T05:33:56.639Z,23.20
2023-02-16T05:36:25.436Z,22.70
2023-02-16T05:38:53.252Z,22.73
2023-02-16T05:41:24.352Z,24.02
2023-02-16T05:43:53.432Z,25.30
2023-02-16T05:46:24.597Z,21.88
2023-02-16T05:48:52.660Z,22.80
2023-02-16T05:51:21.319Z,21.58
2023-02-16T05:53:49.299Z,21.15
2023-02-16T05:56:18.308Z,22.52
2023-02-16T05:58:46.068Z,23.60
2023-02-16T06:01:15.423Z,22.38
2023-02-16T06:03:45.477Z,23.58
2023-02-16T06:06:13.762Z,22.65
2023-02-16T06:08:41.732Z,22.80
2023-02-16T06:11:30.156Z,22.25
2023-02-16T06:13:59.454Z,22.48
2023-02-16T06:16:28.280Z,21.67
2023-02-16T06:18:57.747Z,21.35
2023-02-16T06:21:26.452Z,23.40
2023-02-16T06:23:54.531Z,20.88
2023-02-16T06:26:22.478Z,21.38
2023-02-16T06:28:50.204Z,21.17
2023-02-16T06:31:18.435Z,22.58
2023-02-16T06:33:46.419Z,21.60
2023-02-16T06:36:16.524Z,22.70
2023-02-16T06:38:45.389Z,24.95
2023-02-16T06:41:13.571Z,20.58
2023-02-16T06:43:41.309Z,23.20
2023-02-16T06:46:09.048Z,23.75
2023-02-16T06:48:37.070Z,21.85
2023-02-16T06:51:05.539Z,22.33
2023-02-16T06:53:34.877Z,20.73
2023-02-16T06:56:02.594Z,21.45
2023-02-16T06:58:30.292Z,21.77
2023-02-16T07:00:58.294Z,21.67
2023-02-16T07:03:26.179Z,22.63
2023-02-16T07:05:53.988Z,22.00
2023-02-16T07:08:21.780Z,23.48
2023-02-16T07:10:50.974Z,21.48
2023-02-16T07:13:18.688Z,22.38
2023-02-16T07:15:46.696Z,20.85
2023-02-16T07:18:14.440Z,20.80
2023-02-16T07:20:42.449Z,21.40
2023-02-16T07:23:10.189Z,20.75
2023-02-16T07:25:37.923Z,20.00
2023-02-16T07:28:07.172Z,21.17
2023-02-16T07:30:35.051Z,20.70
2023-02-16T07:33:02.968Z,20.40
2023-02-16T07:35:30.991Z,18.90
2023-02-16T07:37:58.716Z,22.23
2023-02-16T07:40:27.199Z,20.38
2023-02-16T07:42:55.154Z,20.38
2023-02-16T07:45:24.250Z,20.67
2023-02-16T07:47:52.167Z,22.15
2023-02-16T07:50:20.310Z,19.65
2023-02-16T07:52:48.104Z,19.80
2023-02-16T07:55:15.966Z,23.42
2023-02-16T07:57:43.731Z,20.90
2023-02-16T08:00:12.361Z,21.60
2023-02-16T08:02:41.942Z,21.70
2023-02-16T08:05:09.685Z,21.20
2023-02-16T08:07:37.541Z,20.92
2023-02-16T08:10:06.730Z,21.15
2023-02-16T08:12:34.705Z,19.50
2023-02-16T08:15:03.431Z,22.20
2023-02-16T08:17:31.453Z,19.35
2023-02-16T08:20:00.558Z,22.65
2023-02-16T08:22:29.033Z,21.30
2023-02-16T08:24:56.762Z,21.02
2023-02-16T08:27:24.791Z,19.65
2023-02-16T08:29:52.941Z,22.52
2023-02-16T08:32:21.122Z,21.40
2023-02-16T08:34:49.131Z,20.00
2023-02-16T08:37:18.545Z,20.77
2023-02-16T08:39:46.710Z,20.05
2023-02-16T08:42:14.510Z,21.10
2023-02-16T08:44:43.241Z,18.55
2023-02-16T08:47:11.634Z,19.67
2023-02-16T08:49:40.180Z,20.25
2023-02-16T08:52:07.945Z,20.15
2023-02-16T08:54:37.035Z,20.33
2023-02-16T08:57:04.851Z,20.00
2023-02-16T08:59:34.561Z,20.73
2023-02-16T09:02:02.757Z,21.27
2023-02-16T09:04:31.101Z,18.23
2023-02-16T09:06:59.717Z,19.30
2023-02-16T09:09:28.488Z,19.45
2023-02-16T09:11:58.526Z,21.75
2023-02-16T09:14:26.479Z,19.23
2023-02-16T09:16:54.382Z,19.60
2023-02-16T09:19:22.914Z,19.70
2023-02-16T09:21:51.937Z,18.70
2023-02-16T09:24:20.150Z,17.93
2023-02-16T09:26:48.018Z,18.57
2023-02-16T09:29:18.115Z,16.43
2023-02-16T09:31:46.460Z,18.87
2023-02-16T09:34:18.217Z,17.27
2023-02-16T09:36:47.248Z,16.67
2023-02-16T09:39:16.561Z,18.83
2023-02-16T09:42:03.510Z,17.40
2023-02-16T09:44:43.306Z,16.13
2023-02-16T09:47:22.043Z,18.30
2023-02-16T09:49:50.406Z,17.03
2023-02-16T09:52:26.155Z,18.53
2023-02-16T09:54:57.685Z,20.50
2023-02-16T09:57:41.179Z,17.73
2023-02-16T10:00:22.134Z,17.40
2023-02-16T10:02:55.672Z,16.77
2023-02-16T10:05:30.138Z,18.20
2023-02-16T10:08:02.133Z,16.92
2023-02-16T10:10:40.298Z,17.70
2023-02-16T10:13:17.038Z,18.50
2023-02-16T10:15:47.301Z,19.90
2023-02-16T10:18:24.292Z,18.05
2023-02-16T10:20:55.332Z,18.77
2023-02-16T10:23:35.695Z,19.05
2023-02-16T10:26:15.046Z,18.40
2023-02-16T10:28:47.203Z,19.45
2023-02-16T10:31:23.804Z,18.48
2023-02-16T10:34:22.942Z,20.45
2023-02-16T10:37:04.173Z,19.65
2023-02-16T10:39:39.127Z,18.25
2023-02-16T10:42:17.342Z,18.50
2023-02-16T10:44:49.900Z,19.13
2023-02-16T10:47:29.022Z,20.20
2023-02-16T10:49:57.004Z,19.35
2023-02-16T10:52:26.904Z,20.00
2023-02-16T10:54:54.681Z,19.33
2023-02-16T10:57:27.656Z,19.10
2023-02-16T10:59:58.078Z,20.10
2023-02-16T11:02:31.118Z,19.67
2023-02-16T11:04:59.559Z,20.42
2023-02-16T11:07:29.948Z,19.13
2023-02-16T11:10:01.337Z,20.42
2023-02-16T11:12:32.411Z,20.60
2023-02-16T11:15:03.402Z,21.33
2023-02-16T11:17:48.175Z,21.10
2023-02-16T11:20:29.486Z,21.20
2023-02-16T11:23:16.597Z,19.00
2023-02-16T11:25:55.129Z,20.15
2023-02-16T11:28:28.003Z,19.80
2023-02-16T11:31:03.367Z,20.55
2023-02-16T11:33:34.836Z,21.17
2023-02-16T11:36:05.295Z,19.33
2023-02-16T11:38:35.138Z,21.63
2023-02-16T11:41:06.320Z,21.20
2023-02-16T11:43:38.332Z,20.40
2023-02-16T11:46:19.657Z,21.00
2023-02-16T11:48:49.594Z,21.00
2023-02-16T11:51:31.867Z,20.70
2023-02-16T11:54:07.672Z,21.17
2023-02-16T11:56:36.612Z,21.10
2023-02-16T11:59:13.969Z,20.60
2023-02-16T12:02:04.512Z,20.97
2023-02-16T12:04:46.540Z,23.48
2023-02-16T12:07:23.047Z,19.57
2023-02-16T12:10:00.734Z,20.67
2023-02-16T12:12:34.271Z,21.17
2023-02-16T12:15:08.917Z,20.95
2023-02-16T12:17:49.979Z,21.40
2023-02-16T12:20:34.448Z,21.55
2023-02-16T12:23:17.100Z,22.13
2023-02-16T12:25:55.646Z,22.17
2023-02-16T12:28:32.346Z,21.98
2023-02-16T12:31:09.301Z,23.45
2023-02-16T12:33:44.435Z,23.10
2023-02-16T12:36:34.142Z,21.83
2023-02-16T12:39:15.086Z,21.67
2023-02-16T12:41:51.736Z,23.70
2023-02-16T12:44:26.014Z,21.77
2023-02-16T12:47:01.857Z,21.70
2023-02-16T12:49:36.856Z,23.85
2023-02-16T12:52:13.314Z,23.05
2023-02-16T12:54:46.356Z,22.45
2023-02-16T12:57:16.235Z,22.05
2023-02-16T12:59:49.217Z,21.83
2023-02-16T13:02:23.115Z,21.38
2023-02-16T13:04:57.682Z,24.27
2023-02-16T13:07:32.862Z,23.17
2023-02-16T13:10:04.980Z,22.77
2023-02-16T13:12:38.120Z,22.90
2023-02-16T13:15:14.233Z,21.25
2023-02-16T13:17:47.329Z,23.70
2023-02-16T13:20:17.739Z,24.30
2023-02-16T13:23:11.381Z,23.63
2023-02-16T13:26:10.726Z,23.08
2023-02-16T13:28:54.519Z,21.80
2023-02-16T13:31:38.296Z,23.33
2023-02-16T13:34:26.805Z,23.20
2023-02-16T13:37:15.708Z,23.13
2023-02-16T13:40:10.685Z,23.50
2023-02-16T13:43:04.885Z,22.40
2023-02-16T13:45:38.466Z,23.60
2023-02-16T13:48:16.003Z,23.03
2023-02-16T13:50:47.118Z,23.80
2023-02-16T13:53:21.976Z,24.23
2023-02-16T13:56:11.387Z,22.90
2023-02-16T13:58:41.484Z,23.90
2023-02-16T14:01:37.730Z,24.00
2023-02-16T14:04:07.920Z,24.20
2023-02-16T14:06:39.704Z,25.23
2023-02-16T14:09:34.643Z,22.20
2023-02-16T14:12:17.436Z,25.37
2023-02-16T14:15:01.108Z,23.53
2023-02-16T14:17:32.046Z,22.57
2023-02-16T14:20:04.817Z,24.37
2023-02-16T14:22:42.196Z,23.17
2023-02-16T14:25:35.962Z,22.20
2023-02-16T14:28:05.903Z,24.80
2023-02-16T14:30:45.645Z,22.80
2023-02-16T14:33:20.330Z,22.55
2023-02-16T14:36:08.923Z,25.43
2023-02-16T14:38:38.531Z,23.00
2023-02-16T14:41:08.755Z,24.23
2023-02-16T14:43:42.638Z,25.60
2023-02-16T14:46:37.593Z,24.37
2023-02-16T14:49:35.936Z,23.50
2023-02-16T14:52:37.208Z,23.70
2023-02-16T14:55:23.398Z,24.10
2023-02-16T14:57:56.749Z,24.17
2023-02-16T15:00:30.451Z,25.20
2023-02-16T15:03:01.899Z,23.50
2023-02-16T15:05:34.249Z,24.30
2023-02-16T15:08:12.462Z,23.87
2023-02-16T15:10:41.109Z,24.30
2023-02-16T15:13:09.725Z,21.90
2023-02-16T15:15:45.674Z,22.30
2023-02-16T15:18:18.124Z,24.20
2023-02-16T15:20:49.190Z,24.30
2023-02-16T15:23:23.032Z,22.77
2023-02-16T15:25:56.162Z,23.87
2023-02-16T15:28:27.036Z,22.33
2023-02-16T15:30:57.119Z,23.80
2023-02-16T15:33:36.222Z,24.90
2023-02-16T15:36:07.293Z,23.70
2023-02-16T15:38:36.768Z,24.03
2023-02-16T15:41:06.986Z,22.97
2023-02-16T15:43:38.462Z,22.80
2023-02-16T15:46:08.794Z,22.60
2023-02-16T15:48:39.207Z,23.10
2023-02-16T15:51:11.529Z,20.50
2023-02-16T15:53:49.326Z,21.70
2023-02-16T15:56:34.856Z,22.40
2023-02-16T15:59:05.236Z,19.03
2023-02-16T16:01:35.577Z,21.07
2023-02-16T16:04:16.780Z,23.10
2023-02-16T16:06:45.440Z,21.07
2023-02-16T16:09:22.429Z,19.93
2023-02-16T16:11:50.853Z,22.70
2023-02-16T16:14:18.863Z,19.20
2023-02-16T16:16:47.114Z,20.20
2023-02-16T16:19:19.220Z,22.90
2023-02-16T16:21:49.613Z,21.73
2023-02-16T16:24:32.942Z,23.17
2023-02-16T16:27:04.329Z,20.50
2023-02-16T16:29:40.961Z,21.00
2023-02-16T16:32:18.592Z,21.30
2023-02-16T16:34:48.010Z,21.30
2023-02-16T16:37:26.403Z,20.63
2023-02-16T16:40:02.616Z,21.07
2023-02-16T16:42:31.037Z,21.00
2023-02-16T16:45:07.310Z,20.70
2023-02-16T16:47:38.362Z,20.83
2023-02-16T16:50:32.867Z,20.30
2023-02-16T16:53:01.065Z,19.25
2023-02-16T16:55:32.174Z,20.35
2023-02-16T16:58:01.742Z,25.03
2023-02-16T17:00:34.425Z,22.33
2023-02-16T17:03:02.476Z,19.93
2023-02-16T17:05:31.556Z,21.30
2023-02-16T17:07:59.173Z,17.85
2023-02-16T17:10:27.228Z,20.02
2023-02-16T17:12:58.862Z,17.77
2023-02-16T17:15:32.970Z,18.60
2023-02-16T17:18:01.532Z,19.02
2023-02-16T17:20:29.246Z,17.33
2023-02-16T17:23:04.113Z,18.35
2023-02-16T17:25:33.452Z,19.42
2023-02-16T17:28:01.227Z,17.53
2023-02-16T17:30:28.954Z,16.98
2023-02-16T17:32:56.614Z,17.57
2023-02-16T17:35:24.336Z,17.90
2023-02-16T17:37:51.991Z,16.10
2023-02-16T17:40:22.753Z,15.65
2023-02-16T17:42:51.053Z,16.50
2023-02-16T17:45:21.388Z,17.33
2023-02-16T17:47:51.952Z,16.35
2023-02-16T17:50:20.901Z,18.25
2023-02-16T17:52:48.584Z,16.77
2023-02-16T17:55:16.628Z,16.92
2023-02-16T17:57:45.630Z,17.63
2023-02-16T18:00:18.987Z,15.90
2023-02-16T18:02:46.652Z,16.48
2023-02-16T18:05:14.683Z,13.93
2023-02-16T18:07:42.376Z,13.57
2023-02-16T18:10:30.833Z,12.48
2023-02-16T18:12:59.992Z,12.15
2023-02-16T18:15:27.709Z,11.77
2023-02-16T18:17:55.560Z,12.40
2023-02-16T18:20:23.582Z,14.15
2023-02-16T18:22:51.202Z,11.73
2023-02-16T18:25:19.147Z,10.80
2023-02-16T18:27:47.777Z,10.88
2023-02-16T18:30:18.268Z,10.20
2023-02-16T18:32:46.273Z,8.93
2023-02-16T18:35:14.738Z,8.57
2023-02-16T18:37:42.836Z,9.77
2023-02-16T18:40:13.097Z,9.45
2023-02-16T18:42:40.795Z,10.93
2023-02-16T18:45:09.444Z,10.38
2023-02-16T18:47:39.018Z,11.02
2023-02-16T18:50:07.601Z,11.50
2023-02-16T18:52:35.315Z,13.10
2023-02-16T18:55:02.966Z,11.75
2023-02-16T18:57:30.739Z,13.32
2023-02-16T18:59:59.145Z,13.70
2023-02-16T19:02:27.008Z,13.68
2023-02-16T19:04:55.974Z,14.57
2023-02-16T19:07:23.707Z,15.82
2023-02-16T19:09:51.373Z,17.02
2023-02-16T19:12:19.169Z,15.77
2023-02-16T19:14:46.992Z,17.65
2023-02-16T19:17:14.712Z,16.75
2023-02-16T19:19:42.413Z,18.63
2023-02-16T19:22:11.540Z,17.00
2023-02-16T19:24:39.561Z,20.45
2023-02-16T19:27:07.166Z,16.92
2023-02-16T19:29:34.897Z,16.83
2023-02-16T19:32:02.578Z,16.80
2023-02-16T19:34:30.294Z,16.70
2023-02-16T19:36:58.035Z,19.73
2023-02-16T19:39:27.036Z,16.38
2023-02-16T19:41:54.723Z,16.20
2023-02-16T19:44:22.345Z,15.40
2023-02-16T19:46:50.074Z,16.90
2023-02-16T19:49:17.903Z,16.65
2023-02-16T19:51:47.526Z,17.08
2023-02-16T19:54:15.154Z,18.02
2023-02-16T19:56:44.299Z,18.65
2023-02-16T19:59:12.001Z,19.15
2023-02-16T20:01:39.873Z,16.48
2023-02-16T20:04:07.666Z,18.30
2023-02-16T20:06:39.153Z,18.20
2023-02-16T20:09:07.075Z,17.02
2023-02-16T20:11:35.617Z,17.58
2023-02-16T20:14:04.639Z,16.15
2023-02-16T20:16:32.456Z,15.68
2023-02-16T20:19:00.348Z,14.55
2023-02-16T20:21:29.497Z,15.02
2023-02-16T20:23:59.695Z,15.90
2023-02-16T20:26:30.066Z,15.30
2023-02-16T20:28:58.689Z,17.58
2023-02-16T20:31:30.266Z,15.38
2023-02-16T20:33:59.035Z,15.35
2023-02-16T20:36:27.021Z,16.27
2023-02-16T20:38:54.892Z,16.15
2023-02-16T20:41:23.021Z,16.85
2023-02-16T20:43:50.872Z,15.57
2023-02-16T20:46:19.663Z,15.50
2023-02-16T20:48:49.970Z,18.00
2023-02-16T20:51:18.209Z,16.33
2023-02-16T20:53:45.982Z,16.13
2023-02-16T20:56:15.538Z,17.38
2023-02-16T20:58:44.350Z,18.45
2023-02-16T21:01:14.788Z,18.40
2023-02-16T21:03:42.806Z,18.98
2023-02-16T21:06:12.166Z,17.58
2023-02-16T21:08:40.139Z,19.20
2023-02-16T21:11:08.256Z,19.67
2023-02-16T21:13:36.489Z,18.33
2023-02-16T21:16:04.982Z,18.20
2023-02-16T21:18:32.801Z,19.67
2023-02-16T21:21:01.196Z,19.40
2023-02-16T21:23:30.522Z,18.55
2023-02-16T21:25:59.691Z,19.42
2023-02-16T21:28:27.801Z,20.15
2023-02-16T21:30:56.113Z,20.80
2023-02-16T21:33:23.831Z,22.13
2023-02-16T21:35:51.464Z,22.38
2023-02-16T21:38:19.566Z,23.95
2023-02-16T21:41:05.953Z,21.55
2023-02-16T21:43:33.583Z,24.08
2023-02-16T21:46:02.004Z,25.23
2023-02-16T21:48:48.356Z,21.75
2023-02-16T21:51:18.242Z,24.63
2023-02-16T21:53:46.822Z,25.38
2023-02-16T21:56:44.273Z,27.85
2023-02-16T21:59:13.649Z,28.10
2023-02-16T22:01:43.169Z,23.25
2023-02-16T22:04:12.535Z,27.73
2023-02-16T22:06:42.668Z,27.20
2023-02-16T22:09:12.866Z,28.42
2023-02-16T22:11:40.941Z,24.73
2023-02-16T22:14:10.040Z,30.65
2023-02-16T22:16:38.998Z,29.95
2023-02-16T22:19:09.492Z,28.58
2023-02-16T22:21:38.713Z,29.65
2023-02-16T22:24:07.490Z,31.92
2023-02-16T22:26:36.748Z,27.52
2023-02-16T22:29:06.964Z,27.30
2023-02-16T22:31:37.328Z,30.58
2023-02-16T22:34:07.029Z,26.83
2023-02-16T22:36:35.325Z,27.10
2023-02-16T22:39:03.134Z,25.65
2023-02-16T22:41:30.994Z,25.90
2023-02-16T22:43:59.926Z,30.30
2023-02-16T22:46:29.901Z,24.92
2023-02-16T22:49:00.136Z,26.83
2023-02-16T22:51:30.179Z,28.42
2023-02-16T22:53:59.345Z,26.45
2023-02-16T22:56:27.692Z,27.25
2023-02-16T22:58:57.659Z,26.48
2023-02-16T23:01:26.706Z,26.30
2023-02-16T23:03:57.454Z,26.73
2023-02-16T23:06:29.648Z,24.48
2023-02-16T23:08:59.334Z,26.83
2023-02-16T23:11:28.252Z,26.83
2023-02-16T23:13:56.107Z,24.85
2023-02-16T23:16:26.016Z,29.35
2023-02-16T23:18:55.712Z,28.80
2023-02-16T23:21:27.965Z,25.45
2023-02-16T23:23:56.627Z,26.50
2023-02-16T23:26:27.545Z,25.20
2023-02-16T23:28:57.535Z,22.70
2023-02-16T23:31:25.570Z,23.45
2023-02-16T23:33:53.701Z,25.20
2023-02-16T23:36:21.359Z,25.25
2023-02-16T23:38:50.450Z,22.85
2023-02-16T23:41:18.365Z,23.05
2023-02-16T23:43:46.185Z,24.27
2023-02-16T23:46:14.154Z,24.15
2023-02-16T23:48:41.884Z,21.92
2023-02-16T23:51:12.007Z,23.67
2023-02-16T23:53:39.982Z,22.30
2023-02-16T23:56:12.963Z,22.52
2023-02-16T23:58:42.576Z,22.35
